Time;durP1;ratioP1;P1;durP2;ratioP2;P2;SDS_P1;SDS_P2;PMS_P1;PMS_P2;Temp;Humidity;BMP_temperature;BMP_pressure;BME280_temperature;BME280_humidity;BME280_pressure;Samples;Min_cycle;Max_cycle;Signal;HPM_P1;HPM_P2
2022/12/24 00:00:57;;;;;;;10.95;3.00;;;;;;;;;;5095231;28;20039;-77
2022/12/24 00:03:23;;;;;;;11.45;2.70;;;;;;;;;;5094308;28;20418;-77
2022/12/24 00:05:48;;;;;;;6.70;2.45;;;;;;;;;;5095196;28;20437;-77
2022/12/24 00:08:14;;;;;;;10.05;2.63;;;;;;;;;;5095461;28;20111;-77
2022/12/24 00:10:39;;;;;;;10.23;2.70;;;;;;;;;;5095179;28;20107;-76
2022/12/24 00:13:04;;;;;;;9.57;2.50;;;;;;;;;;5093856;28;20020;-76
2022/12/24 00:15:30;;;;;;;6.63;2.63;;;;;;;;;;5095176;28;20111;-77
2022/12/24 00:17:55;;;;;;;9.55;2.55;;;;;;;;;;5093704;28;20024;-76
2022/12/24 00:20:21;;;;;;;8.50;3.33;;;;;;;;;;5095181;28;20040;-76
2022/12/24 00:22:46;;;;;;;10.10;2.63;;;;;;;;;;5095265;28;20097;-77
2022/12/24 00:25:11;;;;;;;8.70;2.60;;;;;;;;;;5095253;28;20028;-76
2022/12/24 00:27:37;;;;;;;9.15;2.97;;;;;;;;;;5094733;28;20027;-77
2022/12/24 00:30:02;;;;;;;10.50;2.70;;;;;;;;;;5093572;28;20035;-77
2022/12/24 00:32:28;;;;;;;13.05;3.03;;;;;;;;;;5094833;28;20036;-77
2022/12/24 00:34:53;;;;;;;11.25;2.72;;;;;;;;;;5094691;28;20115;-77
2022/12/24 00:37:18;;;;;;;8.93;3.00;;;;;;;;;;5076356;28;20368;-77
2022/12/24 00:39:44;;;;;;;13.85;3.15;;;;;;;;;;5094817;28;20028;-77
2022/12/24 00:42:09;;;;;;;9.40;2.47;;;;;;;;;;5093831;28;20028;-77
2022/12/24 00:44:34;;;;;;;7.45;2.75;;;;;;;;;;5095046;28;20378;-77
2022/12/24 00:47:00;;;;;;;7.55;2.50;;;;;;;;;;5093779;28;20056;-77
2022/12/24 00:49:25;;;;;;;7.28;2.25;;;;;;;;;;5094426;28;20436;-77
2022/12/24 00:51:51;;;;;;;13.07;2.83;;;;;;;;;;5094319;28;20042;-76
2022/12/24 00:54:16;;;;;;;7.13;2.42;;;;;;;;;;5093631;28;20416;-77
2022/12/24 00:56:41;;;;;;;8.15;2.38;;;;;;;;;;5094543;28;20031;-77
2022/12/24 00:59:07;;;;;;;11.15;2.75;;;;;;;;;;5075970;28;20042;-76
2022/12/24 01:01:34;;;;;;;10.60;3.20;;;;;;;;;;5094370;28;20024;-77
2022/12/24 01:06:43;;;;;;;9.68;3.05;;;;;;;;;;5094403;28;20034;-77
2022/12/24 01:09:09;;;;;;;7.70;2.60;;;;;;;;;;5075778;28;20465;-77
2022/12/24 01:11:34;;;;;;;12.18;3.13;;;;;;;;;;5093107;28;20027;-77
2022/12/24 01:14:00;;;;;;;12.55;3.28;;;;;;;;;;5093938;28;20466;-77
2022/12/24 01:16:25;;;;;;;11.50;2.75;;;;;;;;;;5092755;28;20032;-77
2022/12/24 01:18:50;;;;;;;8.93;2.33;;;;;;;;;;5094004;28;20096;-77
2022/12/24 01:21:16;;;;;;;10.05;2.75;;;;;;;;;;5092943;28;20039;-76
2022/12/24 01:23:42;;;;;;;10.70;2.67;;;;;;;;;;5093715;28;20039;-76
2022/12/24 01:26:10;;;;;;;11.02;2.83;;;;;;;;;;5092448;28;20039;-76
2022/12/24 01:28:36;;;;;;;13.50;3.60;;;;;;;;;;5092488;28;20012;-77
2022/12/24 01:31:01;;;;;;;9.63;3.10;;;;;;;;;;5092567;28;20039;-77
2022/12/24 01:33:28;;;;;;;13.40;3.55;;;;;;;;;;5093648;28;20028;-77
2022/12/24 01:35:53;;;;;;;8.55;2.53;;;;;;;;;;5092867;28;20379;-76
2022/12/24 01:38:19;;;;;;;11.82;3.00;;;;;;;;;;5092556;28;20031;-77
2022/12/24 01:43:31;;;;;;;10.82;2.70;;;;;;;;;;5093821;28;20039;-77
2022/12/24 01:46:06;;;;;;;12.50;3.17;;;;;;;;;;5092065;28;20229;-77
2022/12/24 01:48:38;;;;;;;13.05;3.10;;;;;;;;;;5092815;28;20032;-77
2022/12/24 01:51:36;;;;;;;8.45;2.53;;;;;;;;;;5092428;28;20020;-77
2022/12/24 01:54:19;;;;;;;10.13;3.45;;;;;;;;;;5091274;28;20043;-77
2022/12/24 01:56:49;;;;;;;9.98;2.70;;;;;;;;;;5092628;28;20020;-77
2022/12/24 01:59:15;;;;;;;9.20;2.75;;;;;;;;;;5092877;28;20030;-76
2022/12/24 02:01:41;;;;;;;8.80;2.90;;;;;;;;;;5092170;28;20028;-77
2022/12/24 02:04:33;;;;;;;12.65;2.95;;;;;;;;;;5093406;28;20047;-77
2022/12/24 02:06:58;;;;;;;12.05;2.92;;;;;;;;;;5092254;28;20020;-77
2022/12/24 02:09:24;;;;;;;12.73;2.90;;;;;;;;;;5093400;28;20059;-77
2022/12/24 02:11:49;;;;;;;11.52;3.47;;;;;;;;;;5093088;28;20024;-77
2022/12/24 02:14:15;;;;;;;12.38;3.60;;;;;;;;;;5091870;28;20099;-76
2022/12/24 02:16:57;;;;;;;10.82;3.17;;;;;;;;;;5091908;28;20024;-77
2022/12/24 02:19:50;;;;;;;8.25;2.63;;;;;;;;;;5093341;28;20069;-77
2022/12/24 02:22:39;;;;;;;9.85;3.15;;;;;;;;;;5092959;28;20024;-77
2022/12/24 02:25:14;;;;;;;12.23;3.13;;;;;;;;;;5074864;28;20027;-77
2022/12/24 02:28:18;;;;;;;8.45;3.05;;;;;;;;;;5092909;28;20498;-77
2022/12/24 02:30:51;;;;;;;15.00;2.97;;;;;;;;;;5092264;28;20051;-77
2022/12/24 02:33:24;;;;;;;12.18;3.35;;;;;;;;;;5092462;28;20036;-77
2022/12/24 02:35:58;;;;;;;11.68;3.28;;;;;;;;;;5093200;28;20027;-77
2022/12/24 02:38:25;;;;;;;16.63;3.30;;;;;;;;;;5074772;28;20029;-77
2022/12/24 02:41:07;;;;;;;12.05;2.90;;;;;;;;;;5091852;28;20020;-77
2022/12/24 02:43:35;;;;;;;9.93;3.00;;;;;;;;;;5091924;28;20063;-77
2022/12/24 02:46:05;;;;;;;10.88;3.00;;;;;;;;;;5092844;28;20048;-77
2022/12/24 02:48:31;;;;;;;12.23;2.97;;;;;;;;;;5091557;28;20013;-77
2022/12/24 02:51:02;;;;;;;13.07;3.10;;;;;;;;;;5091789;28;20077;-77
2022/12/24 02:53:28;;;;;;;11.40;3.08;;;;;;;;;;5074574;28;20024;-77
2022/12/24 02:56:19;;;;;;;10.40;3.35;;;;;;;;;;5093282;28;20085;-77
2022/12/24 02:58:45;;;;;;;11.30;3.70;;;;;;;;;;5092875;28;20078;-77
2022/12/24 03:01:47;;;;;;;9.48;3.10;;;;;;;;;;5092918;28;20032;-77
2022/12/24 03:04:17;;;;;;;10.63;2.95;;;;;;;;;;5092548;28;20035;-77
2022/12/24 03:06:51;;;;;;;13.30;3.30;;;;;;;;;;5091628;28;20024;-77
2022/12/24 03:09:21;;;;;;;8.82;2.65;;;;;;;;;;5093416;28;20486;-77
2022/12/24 03:11:56;;;;;;;11.68;3.40;;;;;;;;;;5095632;28;20028;-77
2022/12/24 03:14:22;;;;;;;18.45;3.53;;;;;;;;;;5094985;28;20549;-77
2022/12/24 03:16:48;;;;;;;8.18;2.85;;;;;;;;;;5077938;28;20166;-76
2022/12/24 03:19:14;;;;;;;11.57;3.22;;;;;;;;;;5095182;28;20176;-76
2022/12/24 03:21:41;;;;;;;10.73;3.60;;;;;;;;;;5094979;28;20098;-76
2022/12/24 03:24:07;;;;;;;11.07;2.83;;;;;;;;;;5095199;28;20096;-76
2022/12/24 03:26:33;;;;;;;10.68;2.92;;;;;;;;;;5095079;28;20024;-77
2022/12/24 03:28:58;;;;;;;13.55;3.40;;;;;;;;;;5077694;28;20035;-76
2022/12/24 03:31:24;;;;;;;10.95;3.47;;;;;;;;;;5094857;28;20046;-76
2022/12/24 03:33:49;;;;;;;7.25;2.83;;;;;;;;;;5096200;28;20516;-75
2022/12/24 03:36:15;;;;;;;12.68;3.05;;;;;;;;;;5095773;28;20216;-76
2022/12/24 03:38:40;;;;;;;9.55;2.70;;;;;;;;;;5095731;28;20081;-77
2022/12/24 03:41:06;;;;;;;9.98;3.00;;;;;;;;;;5094670;28;20056;-77
2022/12/24 03:43:31;;;;;;;9.80;2.83;;;;;;;;;;5095972;28;20494;-76
2022/12/24 03:45:57;;;;;;;9.20;2.78;;;;;;;;;;5095613;28;20064;-77
2022/12/24 03:48:22;;;;;;;9.43;2.83;;;;;;;;;;5094420;28;20032;-77
2022/12/24 03:50:48;;;;;;;11.85;3.20;;;;;;;;;;5094314;28;20099;-77
2022/12/24 03:53:13;;;;;;;9.30;3.03;;;;;;;;;;5094363;28;20043;-77
2022/12/24 03:55:38;;;;;;;12.18;3.13;;;;;;;;;;5095700;28;20039;-77
2022/12/24 03:58:04;;;;;;;11.50;2.88;;;;;;;;;;5095337;28;20043;-77
2022/12/24 04:00:29;;;;;;;10.40;2.83;;;;;;;;;;5095711;28;20072;-77
2022/12/24 04:02:55;;;;;;;10.02;2.70;;;;;;;;;;5077289;28;20033;-77
2022/12/24 04:05:20;;;;;;;8.10;2.97;;;;;;;;;;5095260;28;20035;-77
2022/12/24 04:07:46;;;;;;;10.02;3.05;;;;;;;;;;5095481;28;20028;-77
2022/12/24 04:10:12;;;;;;;12.98;3.40;;;;;;;;;;5077074;28;20043;-77
2022/12/24 04:12:38;;;;;;;10.82;2.80;;;;;;;;;;5094426;28;20532;-77
2022/12/24 04:15:04;;;;;;;9.07;2.90;;;;;;;;;;5094058;28;20036;-77
2022/12/24 04:17:30;;;;;;;8.88;2.72;;;;;;;;;;5093618;28;20024;-77
2022/12/24 04:19:55;;;;;;;9.73;2.50;;;;;;;;;;5095521;28;20085;-77
2022/12/24 04:22:21;;;;;;;8.95;2.75;;;;;;;;;;5094273;28;20024;-76
2022/12/24 04:24:46;;;;;;;9.30;2.92;;;;;;;;;;5093668;28;20140;-76
2022/12/24 04:27:15;;;;;;;12.23;3.00;;;;;;;;;;5095355;28;20024;-77
2022/12/24 04:29:40;;;;;;;10.68;3.13;;;;;;;;;;5093625;28;20024;-76
2022/12/24 04:32:05;;;;;;;10.88;2.75;;;;;;;;;;5095322;28;20114;-76
2022/12/24 04:34:31;;;;;;;6.90;2.55;;;;;;;;;;5093476;28;20035;-77
2022/12/24 04:36:56;;;;;;;9.55;3.03;;;;;;;;;;5094612;28;20080;-76
2022/12/24 04:39:22;;;;;;;8.20;2.40;;;;;;;;;;5095115;28;20039;-77
2022/12/24 04:41:47;;;;;;;11.23;3.08;;;;;;;;;;5076450;28;20076;-77
2022/12/24 04:44:12;;;;;;;9.45;2.88;;;;;;;;;;5076325;28;20027;-77
2022/12/24 04:46:38;;;;;;;9.15;2.92;;;;;;;;;;5093182;28;20533;-76
2022/12/24 04:49:03;;;;;;;11.57;3.30;;;;;;;;;;5093468;28;20032;-77
2022/12/24 04:51:28;;;;;;;9.88;2.72;;;;;;;;;;5093413;28;20028;-77
2022/12/24 04:53:55;;;;;;;9.38;2.53;;;;;;;;;;5093884;28;20470;-77
2022/12/24 04:56:26;;;;;;;14.38;3.00;;;;;;;;;;5093332;28;20474;-77
2022/12/24 04:58:51;;;;;;;9.75;2.83;;;;;;;;;;5094173;28;20067;-76
2022/12/24 05:01:20;;;;;;;9.95;2.80;;;;;;;;;;5092994;28;20063;-77
2022/12/24 05:03:46;;;;;;;11.27;2.85;;;;;;;;;;5093865;28;20028;-77
2022/12/24 05:06:15;;;;;;;10.25;3.10;;;;;;;;;;5092382;28;20035;-76
2022/12/24 05:08:42;;;;;;;10.52;2.92;;;;;;;;;;5092639;28;20102;-76
2022/12/24 05:11:08;;;;;;;10.55;3.40;;;;;;;;;;5092316;28;20460;-76
2022/12/24 05:13:33;;;;;;;8.85;2.90;;;;;;;;;;5092566;28;20082;-77
2022/12/24 05:15:59;;;;;;;10.55;3.17;;;;;;;;;;5093410;28;20024;-77
2022/12/24 05:18:24;;;;;;;11.55;3.47;;;;;;;;;;5075318;28;20036;-76
2022/12/24 05:20:50;;;;;;;10.98;3.33;;;;;;;;;;5092497;28;20471;-76
2022/12/24 05:26:23;;;;;;;10.10;2.83;;;;;;;;;;5092295;28;20041;-77
2022/12/24 05:28:50;;;;;;;10.10;2.58;;;;;;;;;;5093367;28;20054;-76
2022/12/24 05:31:15;;;;;;;10.63;2.90;;;;;;;;;;5091935;28;20036;-77
2022/12/24 05:33:41;;;;;;;12.65;2.72;;;;;;;;;;5091983;28;20036;-77
2022/12/24 05:36:07;;;;;;;15.50;2.97;;;;;;;;;;5092335;28;20036;-75
2022/12/24 05:38:32;;;;;;;9.20;2.65;;;;;;;;;;5075041;28;20134;-75
2022/12/24 05:40:57;;;;;;;9.20;2.83;;;;;;;;;;5093432;28;20036;-75
2022/12/24 05:43:23;;;;;;;11.38;3.17;;;;;;;;;;5092958;28;20028;-75
2022/12/24 05:45:48;;;;;;;7.05;2.40;;;;;;;;;;5091661;28;20059;-75
2022/12/24 05:48:13;;;;;;;10.27;2.97;;;;;;;;;;5093931;28;20044;-76
2022/12/24 05:50:39;;;;;;;7.32;2.80;;;;;;;;;;5092896;28;20024;-76
2022/12/24 05:53:05;;;;;;;11.40;3.17;;;;;;;;;;5093900;28;20466;-76
2022/12/24 05:55:31;;;;;;;8.63;2.45;;;;;;;;;;5092340;28;20519;-77
2022/12/24 05:57:56;;;;;;;8.15;2.97;;;;;;;;;;5092584;28;20111;-76
2022/12/24 06:00:21;;;;;;;8.85;2.42;;;;;;;;;;5093917;28;20108;-75
2022/12/24 06:02:47;;;;;;;8.60;2.60;;;;;;;;;;5093705;28;20028;-77
2022/12/24 06:05:12;;;;;;;8.52;2.70;;;;;;;;;;5093554;28;20123;-76
2022/12/24 06:07:37;;;;;;;9.93;3.00;;;;;;;;;;5092012;28;20029;-76
2022/12/24 06:10:04;;;;;;;7.07;2.58;;;;;;;;;;5094495;28;20021;-76
2022/12/24 06:12:29;;;;;;;9.95;3.05;;;;;;;;;;5075911;28;20059;-76
2022/12/24 06:14:54;;;;;;;10.13;2.63;;;;;;;;;;5094817;28;20039;-76
2022/12/24 06:17:20;;;;;;;9.93;3.17;;;;;;;;;;5092492;28;20138;-76
2022/12/24 06:19:45;;;;;;;7.65;2.35;;;;;;;;;;5091859;28;20382;-76
2022/12/24 06:22:10;;;;;;;9.05;3.38;;;;;;;;;;5093441;28;20032;-77
2022/12/24 06:24:36;;;;;;;9.23;2.65;;;;;;;;;;5095004;28;20043;-75
2022/12/24 06:27:01;;;;;;;8.02;2.83;;;;;;;;;;5094161;28;20035;-76
2022/12/24 06:29:26;;;;;;;10.00;2.70;;;;;;;;;;5092734;28;20205;-76
2022/12/24 06:31:52;;;;;;;10.45;3.00;;;;;;;;;;5092415;28;20032;-77
2022/12/24 06:34:17;;;;;;;6.78;2.30;;;;;;;;;;5094366;28;20090;-76
2022/12/24 06:36:43;;;;;;;7.32;2.60;;;;;;;;;;5094215;28;20028;-77
2022/12/24 06:39:08;;;;;;;11.70;3.38;;;;;;;;;;5093690;28;20064;-77
2022/12/24 06:41:33;;;;;;;11.15;2.53;;;;;;;;;;5093430;28;20024;-77
2022/12/24 06:43:59;;;;;;;7.07;2.47;;;;;;;;;;5093450;28;20501;-76
2022/12/24 06:46:24;;;;;;;7.53;2.03;;;;;;;;;;5097027;28;20047;-76
2022/12/24 06:48:50;;;;;;;9.13;2.50;;;;;;;;;;5096283;28;20047;-77
2022/12/24 06:51:18;;;;;;;7.78;2.47;;;;;;;;;;5097475;28;20503;-76
2022/12/24 06:53:44;;;;;;;10.10;3.20;;;;;;;;;;5096424;28;20146;-76
2022/12/24 06:56:12;;;;;;;8.85;2.75;;;;;;;;;;5095823;28;20085;-75
2022/12/24 06:58:37;;;;;;;9.23;2.90;;;;;;;;;;5081726;28;20028;-74
2022/12/24 07:01:04;;;;;;;9.25;2.65;;;;;;;;;;5080383;28;20570;-76
2022/12/24 07:03:30;;;;;;;28.88;5.25;;;;;;;;;;5080604;28;20027;-76
2022/12/24 07:05:55;;;;;;;21.98;5.00;;;;;;;;;;5077291;28;20028;-77
2022/12/24 07:08:21;;;;;;;17.88;5.20;;;;;;;;;;5096380;28;20487;-76
2022/12/24 07:10:50;;;;;;;21.20;4.95;;;;;;;;;;5094557;28;20028;-77
2022/12/24 07:13:16;;;;;;;19.20;5.22;;;;;;;;;;5094421;28;20038;-77
2022/12/24 07:15:42;;;;;;;15.88;3.78;;;;;;;;;;5077539;28;20119;-77
2022/12/24 07:18:07;;;;;;;18.58;4.25;;;;;;;;;;5094744;28;20036;-76
2022/12/24 07:20:32;;;;;;;13.60;4.15;;;;;;;;;;5095482;28;20032;-76
2022/12/24 07:22:58;;;;;;;19.08;4.53;;;;;;;;;;5077490;28;20024;-76
2022/12/24 07:25:23;;;;;;;13.68;3.92;;;;;;;;;;5077091;28;20032;-76
2022/12/24 07:27:48;;;;;;;12.82;3.55;;;;;;;;;;5095203;28;20020;-76
2022/12/24 07:30:14;;;;;;;11.98;3.40;;;;;;;;;;5095416;28;20077;-76
2022/12/24 07:32:40;;;;;;;16.30;4.18;;;;;;;;;;5094344;28;20028;-76
2022/12/24 07:35:05;;;;;;;15.35;3.92;;;;;;;;;;5094911;28;20404;-76
2022/12/24 07:37:31;;;;;;;12.13;3.90;;;;;;;;;;5095802;28;20043;-76
2022/12/24 07:39:56;;;;;;;14.95;4.05;;;;;;;;;;5077688;28;20024;-76
2022/12/24 07:42:21;;;;;;;13.30;3.55;;;;;;;;;;5096371;28;20035;-78
2022/12/24 07:44:47;;;;;;;10.10;3.55;;;;;;;;;;5077948;28;20392;-76
2022/12/24 07:47:12;;;;;;;16.98;4.00;;;;;;;;;;5077519;28;20060;-76
2022/12/24 07:49:38;;;;;;;11.43;3.53;;;;;;;;;;5096236;28;20390;-76
2022/12/24 07:52:03;;;;;;;20.08;4.57;;;;;;;;;;5095926;28;20126;-76
2022/12/24 07:54:29;;;;;;;11.20;3.85;;;;;;;;;;5094551;28;20028;-76
2022/12/24 07:56:54;;;;;;;19.10;4.25;;;;;;;;;;5093410;28;20047;-76
2022/12/24 07:59:20;;;;;;;13.73;3.70;;;;;;;;;;5096285;28;20111;-78
2022/12/24 08:01:46;;;;;;;12.88;3.80;;;;;;;;;;5096575;28;20118;-77
2022/12/24 08:04:11;;;;;;;12.38;4.03;;;;;;;;;;5095387;28;20109;-77
2022/12/24 08:06:37;;;;;;;20.05;4.22;;;;;;;;;;5096782;28;20024;-78
2022/12/24 08:09:02;;;;;;;12.60;4.03;;;;;;;;;;5094466;28;20149;-77
2022/12/24 08:11:28;;;;;;;18.35;4.85;;;;;;;;;;5094738;28;20390;-77
2022/12/24 08:13:53;;;;;;;15.23;4.13;;;;;;;;;;5077434;28;20032;-77
2022/12/24 08:16:19;;;;;;;11.70;4.07;;;;;;;;;;5077949;28;20036;-77
2022/12/24 08:18:44;;;;;;;13.45;3.80;;;;;;;;;;5077687;28;20032;-77
2022/12/24 08:21:09;;;;;;;15.68;4.00;;;;;;;;;;5093934;28;20032;-78
2022/12/24 08:23:35;;;;;;;14.85;3.67;;;;;;;;;;5094445;28;20032;-78
2022/12/24 08:26:01;;;;;;;12.95;3.63;;;;;;;;;;5095654;28;20032;-78
2022/12/24 08:28:26;;;;;;;11.45;4.35;;;;;;;;;;5094343;28;20081;-77
2022/12/24 08:30:52;;;;;;;11.85;3.83;;;;;;;;;;5094463;28;20024;-79
2022/12/24 08:33:18;;;;;;;14.20;3.50;;;;;;;;;;5094419;28;20043;-78
2022/12/24 08:36:02;;;;;;;11.50;3.67;;;;;;;;;;5093849;28;20020;-78
2022/12/24 08:38:28;;;;;;;14.88;3.83;;;;;;;;;;5093879;28;20024;-78
2022/12/24 08:40:54;;;;;;;15.75;4.10;;;;;;;;;;5093989;28;20406;-79
2022/12/24 08:43:20;;;;;;;15.30;4.40;;;;;;;;;;5093519;28;20119;-78
2022/12/24 08:45:46;;;;;;;13.65;4.07;;;;;;;;;;5093838;28;20127;-79
2022/12/24 08:48:12;;;;;;;12.40;3.92;;;;;;;;;;5076900;28;20016;-78
2022/12/24 08:50:38;;;;;;;13.23;4.13;;;;;;;;;;5093250;28;20372;-78
2022/12/24 08:53:03;;;;;;;12.15;3.63;;;;;;;;;;5093252;28;20035;-78
2022/12/24 08:55:29;;;;;;;13.48;3.53;;;;;;;;;;5093428;28;20032;-77
2022/12/24 08:57:54;;;;;;;14.68;4.20;;;;;;;;;;5094959;28;20123;-78
2022/12/24 09:00:20;;;;;;;16.15;4.10;;;;;;;;;;5094792;28;20031;-78
2022/12/24 09:02:45;;;;;;;11.00;3.60;;;;;;;;;;5095203;28;20031;-79
2022/12/24 09:05:11;;;;;;;11.68;3.67;;;;;;;;;;5093128;28;20114;-78
2022/12/24 09:07:36;;;;;;;15.27;3.55;;;;;;;;;;5093043;28;20514;-78
2022/12/24 09:10:02;;;;;;;15.57;4.05;;;;;;;;;;5093107;28;20028;-78
2022/12/24 09:12:27;;;;;;;13.15;4.30;;;;;;;;;;5076016;28;20063;-78
2022/12/24 09:14:53;;;;;;;15.18;4.15;;;;;;;;;;5094178;28;20062;-77
2022/12/24 09:17:19;;;;;;;14.88;3.70;;;;;;;;;;5092483;28;20031;-77
2022/12/24 09:19:45;;;;;;;17.48;4.22;;;;;;;;;;5093680;28;20028;-76
2022/12/24 09:22:11;;;;;;;12.82;3.40;;;;;;;;;;5092892;28;20088;-78
2022/12/24 09:24:36;;;;;;;13.02;3.85;;;;;;;;;;5093984;28;20379;-78
2022/12/24 09:27:02;;;;;;;11.32;3.38;;;;;;;;;;5092117;28;20386;-78
2022/12/24 09:29:28;;;;;;;15.85;4.13;;;;;;;;;;5092555;28;20039;-76
2022/12/24 09:31:55;;;;;;;11.52;3.88;;;;;;;;;;5094253;28;20339;-77
2022/12/24 09:34:20;;;;;;;14.95;4.35;;;;;;;;;;5093410;28;20063;-77
2022/12/24 09:36:46;;;;;;;12.15;3.58;;;;;;;;;;5092996;28;20101;-76
2022/12/24 09:39:11;;;;;;;12.70;3.58;;;;;;;;;;5093892;28;20048;-76
2022/12/24 09:42:11;;;;;;;13.15;3.33;;;;;;;;;;5075159;28;20566;-77
2022/12/24 09:45:35;;;;;;;10.82;3.55;;;;;;;;;;5093206;28;20020;-76
2022/12/24 09:48:03;;;;;;;13.30;3.78;;;;;;;;;;4994912;28;20137;-78
2022/12/24 09:50:50;;;;;;;15.20;4.35;;;;;;;;;;4994926;28;20496;-78
2022/12/24 09:53:34;;;;;;;11.10;3.33;;;;;;;;;;4994910;28;20041;-79
2022/12/24 09:56:03;;;;;;;12.50;3.90;;;;;;;;;;5011716;28;20041;-78
2022/12/24 09:58:34;;;;;;;12.35;3.85;;;;;;;;;;4979223;28;20393;-78
2022/12/24 10:01:00;;;;;;;12.57;3.63;;;;;;;;;;4994838;28;20025;-76
2022/12/24 10:03:25;;;;;;;12.52;3.78;;;;;;;;;;4995025;28;20165;-78
2022/12/24 10:05:59;;;;;;;15.27;3.85;;;;;;;;;;4995193;28;20233;-79
2022/12/24 10:08:43;;;;;;;10.43;3.75;;;;;;;;;;4994598;28;20018;-78
2022/12/24 10:11:37;;;;;;;15.15;3.60;;;;;;;;;;4995209;28;20038;-77
2022/12/24 10:14:06;;;;;;;10.48;3.60;;;;;;;;;;4987349;28;20073;-78
2022/12/24 10:16:42;;;;;;;13.60;3.65;;;;;;;;;;4994913;28;20152;-78
2022/12/24 10:19:19;;;;;;;12.48;4.00;;;;;;;;;;5066506;28;20040;-77
2022/12/24 10:21:53;;;;;;;8.85;3.20;;;;;;;;;;5098494;28;20028;-77
2022/12/24 10:24:44;;;;;;;8.82;3.10;;;;;;;;;;5097512;28;20382;-76
2022/12/24 10:27:14;;;;;;;10.18;3.33;;;;;;;;;;5096443;28;20035;-76
2022/12/24 10:29:46;;;;;;;11.80;2.88;;;;;;;;;;5095804;28;20054;-77
2022/12/24 10:32:19;;;;;;;11.30;3.10;;;;;;;;;;5095986;28;20024;-79
2022/12/24 10:35:01;;;;;;;9.98;2.95;;;;;;;;;;5096259;28;20028;-77
2022/12/24 10:37:28;;;;;;;13.18;3.47;;;;;;;;;;5095793;28;20032;-76
2022/12/24 10:39:54;;;;;;;12.30;3.85;;;;;;;;;;5097065;28;20067;-77
2022/12/24 10:42:22;;;;;;;9.75;3.05;;;;;;;;;;5096508;28;20107;-77
2022/12/24 10:44:56;;;;;;;14.25;3.50;;;;;;;;;;5096177;28;20039;-79
2022/12/24 10:47:22;;;;;;;12.23;3.65;;;;;;;;;;5096920;28;20044;-79
2022/12/24 10:49:52;;;;;;;9.75;3.55;;;;;;;;;;5097701;28;20040;-78
2022/12/24 10:52:23;;;;;;;9.50;3.13;;;;;;;;;;5096493;28;20167;-78
2022/12/24 10:55:04;;;;;;;10.30;3.38;;;;;;;;;;5096036;28;20050;-79
2022/12/24 10:57:30;;;;;;;11.77;3.67;;;;;;;;;;5097118;28;20107;-78
2022/12/24 10:59:55;;;;;;;15.27;4.15;;;;;;;;;;5097050;28;20116;-78
2022/12/24 11:02:33;;;;;;;11.25;3.20;;;;;;;;;;5095340;28;20058;-77
2022/12/24 11:05:00;;;;;;;12.43;3.45;;;;;;;;;;5078062;28;20043;-78
2022/12/24 11:07:28;;;;;;;12.40;3.45;;;;;;;;;;5077908;28;20478;-78
2022/12/24 11:09:59;;;;;;;12.70;3.10;;;;;;;;;;5095318;28;20039;-78
2022/12/24 11:12:30;;;;;;;12.38;3.05;;;;;;;;;;5095210;28;20088;-78
2022/12/24 11:15:01;;;;;;;7.95;2.60;;;;;;;;;;5095194;28;20501;-78
2022/12/24 11:17:27;;;;;;;11.48;3.17;;;;;;;;;;5094607;28;20111;-78
2022/12/24 11:19:52;;;;;;;12.07;3.67;;;;;;;;;;5096181;28;20103;-79
2022/12/24 11:22:27;;;;;;;9.55;3.08;;;;;;;;;;5095827;28;20177;-78
2022/12/24 11:25:27;;;;;;;11.73;3.60;;;;;;;;;;5095903;28;20461;-78
2022/12/24 11:27:54;;;;;;;13.95;3.88;;;;;;;;;;5078316;28;20051;-77
2022/12/24 11:30:32;;;;;;;12.50;3.30;;;;;;;;;;5094203;28;20107;-78
2022/12/24 11:33:00;;;;;;;14.00;3.33;;;;;;;;;;5097101;28;20117;-78
2022/12/24 11:35:27;;;;;;;12.82;3.47;;;;;;;;;;5097541;28;20390;-78
2022/12/24 11:37:58;;;;;;;10.40;2.90;;;;;;;;;;5095880;28;20025;-78
2022/12/24 11:40:27;;;;;;;14.60;3.28;;;;;;;;;;5095876;28;20027;-78
2022/12/24 11:42:58;;;;;;;12.70;3.08;;;;;;;;;;5094834;28;20068;-78
2022/12/24 11:45:27;;;;;;;11.43;3.47;;;;;;;;;;5095068;28;20035;-78
2022/12/24 11:47:53;;;;;;;11.68;3.30;;;;;;;;;;5095469;28;20055;-78
2022/12/24 11:50:35;;;;;;;9.88;3.20;;;;;;;;;;5094253;28;20028;-78
2022/12/24 11:53:16;;;;;;;8.50;3.00;;;;;;;;;;5077710;28;20032;-78
2022/12/24 11:55:51;;;;;;;12.57;3.58;;;;;;;;;;5094243;28;20031;-78
2022/12/24 11:58:25;;;;;;;16.10;3.00;;;;;;;;;;5094453;28;20477;-79
2022/12/24 12:00:51;;;;;;;10.85;3.38;;;;;;;;;;5077728;28;20027;-78
2022/12/24 12:03:26;;;;;;;11.77;2.97;;;;;;;;;;5077209;28;20047;-77
2022/12/24 12:05:53;;;;;;;13.70;3.45;;;;;;;;;;5095330;28;20020;-75
2022/12/24 12:08:20;;;;;;;8.90;3.10;;;;;;;;;;5093651;28;20417;-76
2022/12/24 12:10:45;;;;;;;8.52;2.80;;;;;;;;;;5093682;28;20120;-76
2022/12/24 12:13:17;;;;;;;12.35;3.50;;;;;;;;;;5076920;28;20486;-77
2022/12/24 12:16:11;;;;;;;16.48;4.82;;;;;;;;;;5093982;28;20046;-77
2022/12/24 12:18:39;;;;;;;13.40;4.00;;;;;;;;;;5083806;28;20044;-77
2022/12/24 12:21:17;;;;;;;11.68;4.35;;;;;;;;;;5093994;28;20028;-78
2022/12/24 12:24:03;;;;;;;12.07;4.60;;;;;;;;;;5093871;28;20125;-78
2022/12/24 12:26:30;;;;;;;10.73;4.57;;;;;;;;;;5094574;28;20041;-78
2022/12/24 12:29:24;;;;;;;11.82;4.40;;;;;;;;;;5093774;28;20439;-78
2022/12/24 12:32:01;;;;;;;13.30;4.80;;;;;;;;;;5094339;28;20039;-78
2022/12/24 12:34:31;;;;;;;14.23;4.60;;;;;;;;;;5077405;28;20027;-78
2022/12/24 12:37:00;;;;;;;14.63;4.53;;;;;;;;;;5077343;28;20026;-79
2022/12/24 12:39:26;;;;;;;16.48;4.78;;;;;;;;;;5077535;28;20449;-79
2022/12/24 12:41:53;;;;;;;16.23;4.60;;;;;;;;;;5093722;28;20032;-78
2022/12/24 12:44:42;;;;;;;11.98;4.57;;;;;;;;;;5093543;28;20036;-78
2022/12/24 12:47:29;;;;;;;12.32;4.50;;;;;;;;;;5092792;28;20040;-77
2022/12/24 12:50:15;;;;;;;19.60;5.00;;;;;;;;;;5094568;28;20031;-80
2022/12/24 12:53:02;;;;;;;15.18;4.32;;;;;;;;;;5076212;28;20027;-81
2022/12/24 12:55:42;;;;;;;11.55;3.90;;;;;;;;;;5092768;28;20051;-80
2022/12/24 12:58:26;;;;;;;10.95;4.20;;;;;;;;;;5075787;28;20028;-81
2022/12/24 13:00:54;;;;;;;;;;;;;;;;;;5094742;28;20026;-79
2022/12/24 13:03:41;;;;;;;11.40;3.58;;;;;;;;;;5094431;28;19923;-79
2022/12/24 13:06:30;;;;;;;12.20;3.75;;;;;;;;;;5095587;28;20046;-80
2022/12/24 13:09:11;;;;;;;9.90;3.47;;;;;;;;;;5095155;28;20470;-80
2022/12/24 13:11:52;;;;;;;11.52;3.80;;;;;;;;;;5093705;28;20055;-80
2022/12/24 13:14:44;;;;;;;8.80;3.30;;;;;;;;;;5093009;28;20028;-80
2022/12/24 13:17:31;;;;;;;9.50;3.50;;;;;;;;;;5090305;28;20458;-80
2022/12/24 13:20:17;;;;;;;9.75;3.63;;;;;;;;;;5092798;28;20123;-80
2022/12/24 13:23:00;;;;;;;10.05;3.53;;;;;;;;;;5093936;28;20490;-80
2022/12/24 13:25:35;;;;;;;10.02;3.42;;;;;;;;;;5092964;28;20382;-80
2022/12/24 13:28:21;;;;;;;12.30;3.55;;;;;;;;;;5092246;28;20028;-80
2022/12/24 13:31:08;;;;;;;7.97;3.10;;;;;;;;;;5092294;28;20031;-80
2022/12/24 13:33:36;;;;;;;8.88;2.95;;;;;;;;;;5093279;28;20047;-80
2022/12/24 13:36:10;;;;;;;10.48;3.70;;;;;;;;;;5092473;28;20060;-77
2022/12/24 13:38:43;;;;;;;9.02;3.25;;;;;;;;;;5092358;28;20471;-78
2022/12/24 13:41:28;;;;;;;;;;;;;;;;;;5092652;28;20028;-79
2022/12/24 13:44:14;;;;;;;11.17;3.27;;;;;;;;;;5093736;28;20002;-78
2022/12/24 13:46:48;;;;;;;10.30;2.88;;;;;;;;;;5092099;28;20760;-80
2022/12/24 13:49:26;;;;;;;8.75;2.67;;;;;;;;;;5093056;28;20034;-79
2022/12/24 13:52:24;;;;;;;6.18;2.83;;;;;;;;;;5091993;28;20567;-78
2022/12/24 13:55:03;;;;;;;8.85;3.08;;;;;;;;;;5093471;28;20043;-79
2022/12/24 13:57:37;;;;;;;10.80;2.95;;;;;;;;;;5075939;28;20035;-78
2022/12/24 14:00:26;;;;;;;8.65;3.13;;;;;;;;;;5076046;28;20016;-81
2022/12/24 14:03:02;;;;;;;8.93;2.55;;;;;;;;;;5093139;28;20036;-80
2022/12/24 14:05:35;;;;;;;9.85;3.00;;;;;;;;;;5093901;28;20485;-80
2022/12/24 14:08:04;;;;;;;8.30;2.95;;;;;;;;;;5092619;28;20149;-80
2022/12/24 14:10:37;;;;;;;7.68;2.95;;;;;;;;;;5091994;28;20046;-81
2022/12/24 14:13:03;;;;;;;8.70;2.50;;;;;;;;;;5074948;28;20024;-80
2022/12/24 14:15:47;;;;;;;8.70;2.75;;;;;;;;;;5093908;28;20024;-80
2022/12/24 14:18:22;;;;;;;10.02;3.10;;;;;;;;;;5093856;28;20035;-81
2022/12/24 14:20:55;;;;;;;11.55;3.38;;;;;;;;;;5092251;28;20398;-78
2022/12/24 14:23:54;;;;;;;7.67;2.60;;;;;;;;;;5092709;28;20024;-81
2022/12/24 14:26:27;;;;;;;9.10;2.45;;;;;;;;;;5092819;28;20105;-78
2022/12/24 14:28:59;;;;;;;8.80;3.22;;;;;;;;;;5075858;28;20168;-78
2022/12/24 14:31:24;;;;;;;9.63;2.70;;;;;;;;;;5075172;28;20040;-80
2022/12/24 14:33:50;;;;;;;7.15;2.40;;;;;;;;;;5093180;28;20039;-78
2022/12/24 14:36:19;;;;;;;8.25;3.03;;;;;;;;;;5092222;28;20140;-78
2022/12/24 14:38:45;;;;;;;7.68;2.70;;;;;;;;;;5093293;28;20038;-80
2022/12/24 14:41:32;;;;;;;12.93;3.42;;;;;;;;;;5093742;28;20115;-81
2022/12/24 14:44:41;;;;;;;10.27;3.00;;;;;;;;;;5075478;28;20024;-80
2022/12/24 14:47:28;;;;;;;14.10;3.47;;;;;;;;;;5030742;28;20163;-81
2022/12/24 14:50:10;;;;;;;10.38;2.97;;;;;;;;;;5014433;28;20492;-81
2022/12/24 14:52:52;;;;;;;9.93;3.10;;;;;;;;;;5014425;28;20546;-81
2022/12/24 14:55:41;;;;;;;7.55;2.95;;;;;;;;;;5031862;28;20048;-82
2022/12/24 14:58:18;;;;;;;10.63;3.00;;;;;;;;;;5015172;28;20072;-79
2022/12/24 15:00:44;;;;;;;8.98;2.50;;;;;;;;;;5031625;28;20056;-80
2022/12/24 15:03:15;;;;;;;7.50;2.88;;;;;;;;;;5014465;28;20489;-80